createdAt,value
2022-11-28T00:14:05.569Z,101372.09
2022-11-28T00:16:48.822Z,101375.63
2022-11-28T00:19:16.986Z,101381.69
2022-11-28T00:22:10.793Z,101371.28
2022-11-28T00:24:58.096Z,101361.78
2022-11-28T00:27:56.528Z,101360.91
2022-11-28T00:30:49.480Z,101350.53
2022-11-28T00:36:51.599Z,101359.22
2022-11-28T00:39:40.663Z,101354.88
2022-11-28T00:42:12.527Z,101360.06
2022-11-28T00:44:41.016Z,101357.47
2022-11-28T00:47:08.256Z,101356.63
2022-11-28T00:49:39.007Z,101354.88
2022-11-28T00:52:06.363Z,101356.63
2022-11-28T00:54:42.266Z,101349.66
2022-11-28T00:57:09.134Z,101351.41
2022-11-28T01:00:00.752Z,101347.06
2022-11-28T01:02:36.546Z,101344.47
2022-11-28T01:05:03.408Z,101347.06
2022-11-28T01:07:37.244Z,101351.41
2022-11-28T01:10:04.300Z,101339.25
2022-11-28T01:12:53.624Z,101336.66
2022-11-28T01:15:51.464Z,101328.03
2022-11-28T01:18:46.500Z,101315.88
2022-11-28T01:21:13.970Z,101326.28
2022-11-28T01:24:05.823Z,101309.81
2022-11-28T01:26:48.472Z,101309.84
2022-11-28T01:29:41.092Z,101301.13
2022-11-28T01:32:13.095Z,101295.03
2022-11-28T01:35:46.578Z,101291.56
2022-11-28T01:39:02.398Z,101289.84
2022-11-28T01:41:31.995Z,101287.28
2022-11-28T01:44:13.786Z,101281.22
2022-11-28T01:47:06.457Z,101265.56
2022-11-28T01:49:50.132Z,101265.56
2022-11-28T01:52:58.501Z,101280.31
2022-11-28T01:55:52.588Z,101273.38
2022-11-28T01:58:55.912Z,101270.78
2022-11-28T02:01:35.796Z,101268.19
2022-11-28T02:04:06.256Z,101245.69
2022-11-28T02:06:47.166Z,101249.13
2022-11-28T02:09:16.646Z,101257.78
2022-11-28T02:16:04.534Z,101250.81
2022-11-28T02:23:44.072Z,101245.63
2022-11-28T02:26:53.733Z,101233.50
2022-11-28T02:30:05.253Z,101228.25
2022-11-28T02:32:55.389Z,101221.34
2022-11-28T02:35:52.891Z,101216.16
2022-11-28T02:38:57.278Z,101220.47
2022-11-28T02:42:08.898Z,101228.25
2022-11-28T02:44:58.929Z,101219.63
2022-11-28T02:47:57.868Z,101213.56
2022-11-28T02:51:02.318Z,101197.06
2022-11-28T02:53:56.947Z,101197.06
2022-11-28T02:56:56.885Z,101178.88
2022-11-28T02:59:50.300Z,101167.63
2022-11-28T03:03:04.139Z,101165.88
2022-11-28T03:06:07.032Z,101150.28
2022-11-28T03:08:59.068Z,101141.59
2022-11-28T03:12:10.163Z,101156.34
2022-11-28T03:14:51.915Z,101151.97
2022-11-28T03:18:10.078Z,101149.41
2022-11-28T03:20:49.476Z,101133.81
2022-11-28T03:24:01.561Z,101124.25
2022-11-28T03:26:56.581Z,101117.34
2022-11-28T03:29:53.731Z,101125.16
2022-11-28T03:32:46.497Z,101110.41
2022-11-28T03:35:42.343Z,101127.75
2022-11-28T03:38:48.599Z,101128.59
2022-11-28T03:41:59.301Z,101132.94
2022-11-28T03:45:05.360Z,101126.84
2022-11-28T03:47:47.169Z,101131.19
2022-11-28T03:57:07.142Z,101121.66
2022-11-28T03:59:41.519Z,101122.50
2022-11-28T04:03:06.052Z,101121.63
2022-11-28T04:06:17.612Z,101132.03
2022-11-28T04:09:47.487Z,101133.75
2022-11-28T04:12:53.782Z,101132.03
2022-11-28T04:15:45.785Z,101134.63
2022-11-28T04:18:46.629Z,101136.34
2022-11-28T04:29:38.474Z,101119.03
2022-11-28T04:32:08.070Z,101111.25
2022-11-28T04:35:05.553Z,101101.72
2022-11-28T04:37:40.853Z,101110.38
2022-11-28T04:40:11.222Z,101114.66
2022-11-28T04:42:57.493Z,101110.38
2022-11-28T04:49:00.825Z,101111.22
2022-11-28T04:52:06.246Z,101112.09
2022-11-28T04:55:07.848Z,101139.81
2022-11-28T04:58:50.924Z,101144.16
2022-11-28T05:01:56.910Z,101127.66
2022-11-28T05:04:49.938Z,101134.63
2022-11-28T05:08:05.461Z,101132.00
2022-11-28T05:10:42.313Z,101129.44
2022-11-28T05:13:18.319Z,101121.63
2022-11-28T05:19:15.876Z,101118.19
2022-11-28T05:21:57.037Z,101128.56
2022-11-28T05:24:49.863Z,101126.00
2022-11-28T05:27:19.573Z,101135.53
2022-11-28T05:30:03.494Z,101120.78
2022-11-28T05:36:13.320Z,101116.44
2022-11-28T05:38:51.513Z,101109.50
2022-11-28T05:41:43.040Z,101119.03
2022-11-28T05:44:10.608Z,101115.59
2022-11-28T05:46:47.311Z,101108.66
2022-11-28T05:49:13.843Z,101107.78
2022-11-28T05:51:50.302Z,101100.84
2022-11-28T05:54:45.687Z,101110.38
2022-11-28T05:57:12.333Z,101127.69
2022-11-28T06:00:17.671Z,101148.47
2022-11-28T06:02:54.086Z,101156.25
2022-11-28T06:05:51.207Z,101173.56
2022-11-28T06:08:56.401Z,101163.16
2022-11-28T06:12:01.004Z,101176.19
2022-11-28T06:14:50.110Z,101179.63
2022-11-28T06:17:19.135Z,101163.16
2022-11-28T06:19:46.432Z,101162.28
2022-11-28T06:22:13.295Z,101178.72
2022-11-28T06:29:16.481Z,101172.63
2022-11-28T06:31:43.505Z,101174.38
2022-11-28T06:34:12.004Z,101170.03
2022-11-28T06:37:03.515Z,101160.50
2022-11-28T06:39:37.952Z,101166.56
2022-11-28T06:42:06.289Z,101159.59
2022-11-28T06:44:55.409Z,101148.34
2022-11-28T06:51:57.282Z,101142.28
2022-11-28T06:55:17.981Z,101134.47
2022-11-28T06:57:48.027Z,101137.91
2022-11-28T07:00:15.156Z,101126.69
2022-11-28T07:03:16.929Z,101122.31
2022-11-28T07:05:43.603Z,101118.84
2022-11-28T07:08:13.134Z,101107.59
2022-11-28T07:10:51.556Z,101097.22
2022-11-28T07:14:07.556Z,101110.19
2022-11-28T07:16:56.282Z,101104.97
2022-11-28T07:19:37.829Z,101109.34
2022-11-28T07:22:14.452Z,101105.00
2022-11-28T07:26:07.788Z,101105.00
2022-11-28T07:29:06.092Z,101131.00
2022-11-28T07:31:53.655Z,101133.59
2022-11-28T07:34:20.585Z,101134.47
2022-11-28T07:41:56.819Z,101134.50
2022-11-28T07:51:47.153Z,101125.88
2022-11-28T08:17:00.004Z,101142.41
2022-11-28T08:19:46.531Z,101146.75
2022-11-28T08:22:13.237Z,101149.38
2022-11-28T08:51:08.315Z,101168.47
2022-11-28T08:57:56.560Z,101174.50
2022-11-28T12:14:11.586Z,101158.38
2022-11-28T21:53:48.850Z,101318.41
2022-11-28T21:57:32.198Z,101321.91
2022-11-28T22:05:52.839Z,101323.59
2022-11-28T22:19:52.537Z,101335.66
2022-11-28T22:32:09.820Z,101325.25
2022-11-28T22:35:54.653Z,101332.19
2022-11-28T22:51:16.928Z,101347.75
2022-11-28T22:53:44.918Z,101339.91
2022-11-28T22:59:43.141Z,101339.03
2022-11-28T23:15:46.164Z,101349.47
2022-11-28T23:18:20.205Z,101339.94
2022-11-28T23:21:29.241Z,101346.88
2022-11-28T23:25:28.622Z,101347.72
2022-11-28T23:28:23.414Z,101346.84
2022-11-28T23:34:06.710Z,101352.00
2022-11-28T23:37:16.626Z,101345.94
2022-11-28T23:44:20.296Z,101355.47
2022-11-28T23:47:16.293Z,101352.00
2022-11-28T23:50:18.293Z,101366.69
